createdAt,value
2022-08-10T00:00:53.533Z,69189.56
2022-08-10T00:03:20.658Z,69198.09
2022-08-10T00:05:52.722Z,69181.56
2022-08-10T00:08:24.140Z,69175.31
2022-08-10T00:10:56.480Z,69168.84
2022-08-10T00:13:25.446Z,69166.19
2022-08-10T00:15:54.889Z,69166.00
2022-08-10T00:18:34.431Z,69163.69
2022-08-10T00:21:05.643Z,69160.06
2022-08-10T00:23:33.496Z,69163.31
2022-08-10T00:26:00.761Z,69150.75
2022-08-10T00:28:27.933Z,69149.06
2022-08-10T00:30:56.060Z,69167.69
2022-08-10T00:33:23.234Z,69156.88
2022-08-10T00:35:50.765Z,69151.31
2022-08-10T00:38:18.052Z,69146.03
2022-08-10T00:40:46.165Z,69135.97
2022-08-10T00:43:13.342Z,69137.09
2022-08-10T00:45:40.476Z,69142.03
2022-08-10T00:48:07.652Z,69129.50
2022-08-10T00:50:34.880Z,69114.88
2022-08-10T00:53:02.360Z,69108.81
2022-08-10T00:55:29.963Z,69107.84
2022-08-10T00:57:57.763Z,69109.72
2022-08-10T01:00:25.129Z,69104.03
2022-08-10T01:02:53.308Z,69098.34
2022-08-10T01:05:21.941Z,69091.66
2022-08-10T01:08:15.182Z,69083.91
2022-08-10T01:10:55.975Z,69061.31
2022-08-10T01:13:29.006Z,69052.19
2022-08-10T01:16:23.263Z,69049.72
2022-08-10T01:19:15.209Z,69027.50
2022-08-10T01:21:54.250Z,69018.56
2022-08-10T01:24:39.169Z,69005.47
2022-08-10T01:27:43.645Z,68999.75
2022-08-10T01:30:18.920Z,68991.63
2022-08-10T01:33:00.254Z,68989.75
2022-08-10T01:35:45.273Z,68989.34
2022-08-10T01:38:20.471Z,68976.59
2022-08-10T01:40:54.969Z,68974.91
2022-08-10T01:43:25.250Z,68978.13
2022-08-10T01:45:55.903Z,68961.63
2022-08-10T01:48:31.684Z,68945.50
2022-08-10T01:51:11.147Z,68952.91
2022-08-10T01:53:54.394Z,68938.47
2022-08-10T01:56:24.394Z,68941.91
2022-08-10T01:58:56.884Z,68940.56
2022-08-10T02:01:28.439Z,68941.53
2022-08-10T02:04:05.166Z,68940.56
2022-08-10T02:06:45.190Z,68923.28
2022-08-10T02:12:08.585Z,68901.28
2022-08-10T02:14:51.007Z,68889.69
2022-08-10T02:17:57.511Z,68889.69
2022-08-10T02:20:20.474Z,68880.63
2022-08-10T02:22:55.085Z,68875.31
2022-08-10T02:25:41.537Z,68869.03
2022-08-10T02:28:29.992Z,68865.06
2022-08-10T02:31:23.078Z,68855.94
2022-08-10T02:33:57.268Z,68876.06
2022-08-10T02:36:29.561Z,68874.94
2022-08-10T02:39:01.386Z,68876.25
2022-08-10T02:45:01.644Z,68878.50
2022-08-10T02:45:17.812Z,68877.75
2022-08-10T02:47:30.247Z,68885.34
2022-08-10T02:50:31.813Z,68875.84
2022-08-10T02:53:04.198Z,68848.38
2022-08-10T02:55:49.548Z,68833.38
2022-08-10T02:58:26.332Z,68814.63
2022-08-10T03:00:56.567Z,68808.38
2022-08-10T03:03:29.615Z,68788.78
2022-08-10T03:06:03.640Z,68766.06
2022-08-10T03:08:34.616Z,68761.16
2022-08-10T03:11:04.922Z,68764.72
2022-08-10T03:13:33.756Z,68773.66
2022-08-10T03:16:01.652Z,68791.09
2022-08-10T03:18:29.548Z,68803.63
2022-08-10T03:20:57.630Z,68786.13
2022-08-10T03:23:26.947Z,68795.44
2022-08-10T03:25:57.115Z,68789.19
2022-08-10T03:28:27.682Z,68773.28
2022-08-10T03:30:58.117Z,68775.94
2022-08-10T03:33:29.043Z,68776.88
2022-08-10T03:36:43.620Z,68777.25
2022-08-10T03:38:46.204Z,68776.31
2022-08-10T03:41:15.902Z,68778.59
2022-08-10T03:43:48.206Z,68774.59
2022-08-10T03:46:19.055Z,68775.16
2022-08-10T03:48:50.233Z,68780.88
2022-08-10T03:51:22.599Z,68769.09
2022-08-10T03:54:03.818Z,68764.16
2022-08-10T03:56:36.519Z,68754.69
2022-08-10T03:59:04.675Z,68763.03
2022-08-10T04:02:52.195Z,68757.56
2022-08-10T04:04:24.080Z,68748.09
2022-08-10T04:06:55.119Z,68743.88
2022-08-10T04:09:29.690Z,68759.81
2022-08-10T04:12:15.454Z,68771.19
2022-08-10T04:14:50.713Z,68777.06
2022-08-10T04:18:02.810Z,68786.16
2022-08-10T04:20:29.968Z,68797.38
2022-08-10T04:23:07.876Z,68785.78
2022-08-10T04:25:36.633Z,68813.31
2022-08-10T04:28:04.206Z,68820.31
2022-08-10T04:30:32.450Z,68813.28
2022-08-10T04:33:03.343Z,68823.72
2022-08-10T04:35:32.479Z,68824.47
2022-08-10T04:38:02.174Z,68802.28
2022-08-10T04:40:31.025Z,68811.22
2022-08-10T04:43:04.430Z,68799.41
2022-08-10T04:45:47.547Z,68798.28
2022-08-10T04:48:41.201Z,68803.22
2022-08-10T04:51:20.447Z,68777.06
2022-08-10T04:54:03.747Z,68795.44
2022-08-10T04:56:38.580Z,68796.03
2022-08-10T04:59:07.914Z,68807.06
2022-08-10T05:02:21.590Z,68812.56
2022-08-10T05:04:35.095Z,68820.88
2022-08-10T05:07:10.960Z,68834.72
2022-08-10T05:10:01.828Z,68846.06
2022-08-10T05:12:27.733Z,68846.66
2022-08-10T05:14:55.524Z,68872.25
2022-08-10T05:17:23.778Z,68892.38
2022-08-10T05:20:04.089Z,68891.41
2022-08-10T05:22:41.789Z,68907.53
2022-08-10T05:25:12.404Z,68903.94
2022-08-10T05:27:41.196Z,68898.03
2022-08-10T05:30:11.161Z,68898.63
2022-08-10T05:32:56.960Z,68924.59
2022-08-10T05:35:26.917Z,68929.72
2022-08-10T05:38:12.330Z,68943.41
2022-08-10T05:49:13.923Z,68976.41
2022-08-10T05:51:58.553Z,68994.66
2022-08-10T06:08:44.300Z,69147.34
2022-08-10T06:12:26.639Z,69173.59
2022-08-10T06:14:22.676Z,69186.72
2022-08-10T06:16:57.873Z,69191.44
2022-08-10T06:19:26.001Z,69249.81
2022-08-10T06:22:00.730Z,69264.81
2022-08-10T06:24:46.469Z,69273.41
2022-08-10T06:27:34.278Z,69308.75
2022-08-10T06:30:02.031Z,69331.75
2022-08-10T06:32:30.931Z,69352.88
2022-08-10T06:35:00.528Z,69372.28
2022-08-10T06:37:29.425Z,69391.53
2022-08-10T06:39:56.770Z,69384.28
2022-08-10T06:42:34.255Z,69417.97
2022-08-10T06:45:15.508Z,69452.22
2022-08-10T06:47:59.612Z,69462.91
2022-08-10T06:53:21.923Z,69447.47
2022-08-10T06:56:02.513Z,69454.75
2022-08-10T06:58:36.838Z,69443.09
2022-08-10T07:01:09.357Z,69464.06
2022-08-10T07:03:44.836Z,69472.25
2022-08-10T07:06:14.000Z,69481.63
2022-08-10T07:08:42.229Z,69478.34
2022-08-10T07:11:12.143Z,69495.50
2022-08-10T07:14:16.083Z,69529.59
2022-08-10T07:16:31.104Z,69524.78
2022-08-10T07:19:00.407Z,69525.94
2022-08-10T07:21:29.045Z,69543.06
2022-08-10T07:24:00.823Z,69543.06
2022-08-10T07:26:30.750Z,69501.34
2022-08-10T07:28:59.287Z,69465.78
2022-08-10T07:31:36.137Z,69453.94
2022-08-10T07:34:28.911Z,69431.50
2022-08-10T07:37:03.648Z,69413.97
2022-08-10T07:39:58.265Z,69437.38
2022-08-10T07:42:23.109Z,69487.66
2022-08-10T07:44:51.424Z,69527.09
2022-08-10T07:47:52.312Z,69554.50
2022-08-10T07:50:12.872Z,69588.97
2022-08-10T07:52:40.997Z,69603.41
2022-08-10T07:55:14.435Z,69649.81
2022-08-10T07:57:44.443Z,69635.09
2022-08-10T08:00:12.647Z,69651.69
2022-08-10T08:02:45.026Z,69683.16
2022-08-10T08:05:57.462Z,69706.44
2022-08-10T08:08:03.857Z,69720.56
2022-08-10T08:10:31.727Z,69732.03
2022-08-10T08:13:01.318Z,69736.34
2022-08-10T08:16:16.720Z,69770.13
2022-08-10T08:18:23.008Z,69777.16
2022-08-10T08:20:54.394Z,69804.69
2022-08-10T08:24:09.124Z,69813.59
2022-08-10T08:26:11.748Z,69818.75
2022-08-10T08:28:45.722Z,69847.41
2022-08-10T08:31:15.938Z,69847.41
2022-08-10T08:33:45.502Z,69855.00
2022-08-10T08:36:15.924Z,69843.09
2022-08-10T08:38:44.026Z,69880.00
2022-08-10T08:41:52.877Z,69886.91
2022-08-10T08:44:38.869Z,69913.66
2022-08-10T08:48:03.279Z,69929.69
2022-08-10T08:50:45.569Z,69929.28
2022-08-10T08:53:21.842Z,69936.72
2022-08-10T08:56:21.948Z,69926.41
2022-08-10T08:59:08.748Z,69938.03
2022-08-10T09:01:49.969Z,69956.06
2022-08-10T09:04:55.709Z,69971.84
2022-08-10T09:08:08.198Z,69984.69
2022-08-10T09:10:52.735Z,69996.88
2022-08-10T09:13:27.381Z,70005.66
2022-08-10T09:16:13.306Z,70011.38
2022-08-10T09:18:56.024Z,70017.53
2022-08-10T09:21:43.165Z,70013.50
2022-08-10T09:24:46.298Z,70027.28
2022-08-10T09:27:24.298Z,70063.81
2022-08-10T09:29:57.224Z,70079.44
2022-08-10T09:36:15.122Z,70065.66
2022-08-10T09:36:27.000Z,70045.28
2022-08-10T09:38:37.989Z,70059.34
2022-08-10T09:41:16.286Z,70063.38
2022-08-10T09:43:56.849Z,70082.88
2022-08-10T09:46:59.189Z,70103.50
2022-08-10T09:50:02.244Z,70095.50
2022-08-10T09:52:43.547Z,70109.09
2022-08-10T09:56:19.250Z,70094.56
2022-08-10T09:59:29.323Z,70154.13
2022-08-10T10:02:18.164Z,70147.66
2022-08-10T10:04:54.443Z,70150.53
2022-08-10T10:07:29.229Z,70174.47
2022-08-10T10:10:07.883Z,70207.88
2022-08-10T10:12:55.527Z,70174.25
2022-08-10T10:15:50.836Z,70232.56
2022-08-10T10:18:34.578Z,70248.63
2022-08-10T10:21:07.687Z,70247.06
2022-08-10T10:24:21.095Z,70233.91
2022-08-10T10:26:52.961Z,70209.25
2022-08-10T10:29:57.394Z,70193.56
2022-08-10T10:32:47.552Z,70132.31
2022-08-10T10:35:23.656Z,70081.56
2022-08-10T10:38:01.064Z,70044.72
2022-08-10T10:41:03.195Z,70034.72
2022-08-10T10:43:47.281Z,70080.81
2022-08-10T10:46:38.971Z,70158.56
2022-08-10T10:49:20.789Z,70110.38
2022-08-10T10:52:02.232Z,70128.75
2022-08-10T10:54:39.293Z,70118.56
2022-08-10T10:57:18.491Z,70097.19
2022-08-10T11:00:05.695Z,70104.50
2022-08-10T11:02:55.705Z,70093.78
2022-08-10T11:06:00.265Z,70096.47
2022-08-10T11:08:34.421Z,70114.38
2022-08-10T11:11:25.327Z,70133.31
2022-08-10T11:14:25.577Z,70139.63
2022-08-10T11:17:18.807Z,70141.94
2022-08-10T11:20:04.345Z,70136.19
2022-08-10T11:22:48.291Z,70164.88
2022-08-10T11:25:27.586Z,70190.84
2022-08-10T11:28:20.505Z,70189.75
2022-08-10T11:31:05.240Z,70200.06
2022-08-10T11:34:47.318Z,70233.88
2022-08-10T11:37:22.151Z,70260.69
2022-08-10T11:40:15.454Z,70264.13
2022-08-10T11:42:51.235Z,70247.63
2022-08-10T11:45:25.459Z,70279.22
2022-08-10T11:48:52.807Z,70289.81
2022-08-10T11:51:18.952Z,70294.72
2022-08-10T11:53:57.081Z,70303.31
2022-08-10T11:56:31.700Z,70315.34
2022-08-10T11:59:17.680Z,70280.34
2022-08-10T12:01:47.604Z,70243.03
2022-08-10T12:04:16.560Z,70229.28
2022-08-10T12:06:55.531Z,70226.97
2022-08-10T12:10:09.836Z,70191.25
2022-08-10T12:12:17.400Z,70184.00
2022-08-10T12:15:00.209Z,70224.13
2022-08-10T12:17:33.991Z,70286.50
2022-08-10T12:20:17.620Z,70308.31
2022-08-10T12:23:22.336Z,70301.59
2022-08-10T12:26:02.391Z,70276.16
2022-08-10T12:29:08.868Z,70263.75
2022-08-10T12:31:54.301Z,70242.72
2022-08-10T12:34:34.591Z,70217.78
2022-08-10T12:37:35.489Z,70153.63
2022-08-10T12:40:38.194Z,70141.50
2022-08-10T12:44:06.788Z,70131.03
2022-08-10T12:46:20.387Z,70121.28
2022-08-10T12:48:57.319Z,70122.59
2022-08-10T12:51:30.434Z,70132.75
2022-08-10T12:54:32.743Z,70143.50
2022-08-10T12:57:02.258Z,70138.72
2022-08-10T12:59:31.682Z,70165.88
2022-08-10T13:02:10.386Z,70180.34
2022-08-10T13:04:42.385Z,70170.75
2022-08-10T13:07:10.479Z,70146.38
2022-08-10T13:10:18.284Z,70150.53
2022-08-10T13:12:52.171Z,70130.13
2022-08-10T13:15:50.113Z,70135.78
2022-08-10T13:18:18.401Z,70153.41
2022-08-10T13:20:51.598Z,70153.97
2022-08-10T13:23:30.015Z,70147.25
2022-08-10T13:26:01.000Z,70126.69
2022-08-10T13:28:39.932Z,70123.22
2022-08-10T13:31:16.380Z,70132.16
2022-08-10T13:34:38.906Z,70147.53
2022-08-10T13:36:40.229Z,70128.75
2022-08-10T13:39:08.568Z,70110.81
2022-08-10T13:41:39.870Z,70085.88
2022-08-10T13:44:09.830Z,70091.47
2022-08-10T13:46:40.466Z,70088.59
2022-08-10T13:49:11.083Z,70066.97
2022-08-10T13:51:53.973Z,70073.13
2022-08-10T13:54:36.007Z,70073.53
2022-08-10T13:57:05.038Z,70067.97
2022-08-10T14:00:34.288Z,70072.56
2022-08-10T14:02:25.664Z,70085.56
2022-08-10T14:04:55.976Z,70084.44
2022-08-10T14:07:24.117Z,70102.91
2022-08-10T14:09:53.723Z,70129.88
2022-08-10T14:12:32.191Z,70160.84
2022-08-10T14:15:04.897Z,70180.06
2022-08-10T14:17:34.970Z,70218.81
2022-08-10T14:20:05.581Z,70292.81
2022-08-10T14:22:37.731Z,70316.50
2022-08-10T14:25:13.312Z,70317.50
2022-08-10T14:28:03.700Z,70351.78
2022-08-10T14:30:33.409Z,70334.13
2022-08-10T14:33:04.520Z,70315.06
2022-08-10T14:36:19.384Z,70306.03
2022-08-10T14:38:28.880Z,70315.34
2022-08-10T14:40:59.624Z,70272.16
2022-08-10T14:43:33.675Z,70262.97
2022-08-10T14:46:18.078Z,70258.38
2022-08-10T14:48:48.346Z,70271.72
2022-08-10T14:51:19.445Z,70239.44
2022-08-10T14:53:54.140Z,70227.41
2022-08-10T14:56:32.465Z,70227.41
2022-08-10T14:59:06.893Z,70197.56
2022-08-10T15:02:37.752Z,70180.91
2022-08-10T15:04:30.404Z,70151.84
2022-08-10T15:07:20.607Z,70171.03
2022-08-10T15:10:00.496Z,70137.34
2022-08-10T15:29:29.196Z,70142.78
2022-08-10T15:32:25.463Z,70140.22
2022-08-10T15:35:13.510Z,70143.66
2022-08-10T15:37:45.493Z,70143.50
2022-08-10T15:40:25.691Z,70136.78
2022-08-10T15:43:20.279Z,70150.69
2022-08-10T15:46:16.079Z,70190.25
2022-08-10T15:48:48.508Z,70215.19
2022-08-10T15:51:28.471Z,70233.72
2022-08-10T15:54:13.856Z,70213.22
2022-08-10T15:56:49.362Z,70171.19
2022-08-10T15:59:27.034Z,70102.00
2022-08-10T16:02:13.066Z,70100.88
2022-08-10T16:04:54.134Z,70080.81
2022-08-10T16:07:45.358Z,70089.34
2022-08-10T16:10:27.354Z,70092.59
2022-08-10T16:13:59.321Z,70067.97
2022-08-10T16:15:58.020Z,70075.84
2022-08-10T16:18:28.318Z,70090.16
2022-08-10T16:21:00.921Z,70105.81
2022-08-10T16:23:32.625Z,70129.31
2022-08-10T16:26:14.508Z,70149.38
2022-08-10T16:28:48.150Z,70170.03
2022-08-10T16:31:27.075Z,70171.19
2022-08-10T16:33:58.838Z,70145.59
2022-08-10T16:36:37.253Z,70150.19
2022-08-10T16:39:05.675Z,70166.16
2022-08-10T16:42:04.081Z,70176.91
2022-08-10T16:44:28.752Z,70161.59
2022-08-10T16:46:58.105Z,70154.41
2022-08-10T16:49:27.461Z,70154.56
2022-08-10T16:51:56.449Z,70148.66
2022-08-10T16:54:27.523Z,70126.69
2022-08-10T16:57:02.118Z,70151.84
2022-08-10T16:59:40.549Z,70144.81
2022-08-10T17:02:14.178Z,70128.56
2022-08-10T17:04:44.027Z,70117.28
2022-08-10T17:07:16.079Z,70114.97
2022-08-10T17:09:50.752Z,70096.78
2022-08-10T17:12:23.584Z,70088.19
2022-08-10T17:15:09.833Z,70085.16
2022-08-10T17:17:44.359Z,70082.31
2022-08-10T17:20:31.140Z,70063.94
2022-08-10T17:23:06.804Z,70069.69
2022-08-10T17:25:45.935Z,70071.25
2022-08-10T17:28:33.055Z,70059.91
2022-08-10T17:31:38.099Z,70060.75
2022-08-10T17:34:01.681Z,70060.50
2022-08-10T17:36:34.520Z,70052.47
2022-08-10T17:39:03.656Z,70030.13
2022-08-10T17:41:33.964Z,70019.97
2022-08-10T17:44:05.124Z,70004.34
2022-08-10T17:46:38.578Z,69992.16
2022-08-10T17:49:08.950Z,69975.09
2022-08-10T17:51:39.563Z,69963.66
2022-08-10T17:54:23.764Z,69956.06
2022-08-10T17:56:52.350Z,69946.88
2022-08-10T17:59:24.864Z,69915.25
2022-08-10T18:02:02.239Z,69934.28
2022-08-10T18:04:41.401Z,69915.56
2022-08-10T18:07:11.681Z,69911.53
2022-08-10T18:09:51.665Z,69892.06
2022-08-10T18:12:30.887Z,69882.31
2022-08-10T18:15:08.421Z,69869.56
2022-08-10T18:17:40.819Z,69860.41
2022-08-10T18:20:10.008Z,69849.13
2022-08-10T18:22:44.762Z,69827.94
2022-08-10T18:25:26.258Z,69819.75
2022-08-10T18:28:03.639Z,69817.31
2022-08-10T18:30:45.099Z,69783.44
2022-08-10T18:33:14.347Z,69770.94
2022-08-10T18:35:44.751Z,69757.38
2022-08-10T18:38:13.464Z,69756.22
2022-08-10T18:40:45.084Z,69743.63
2022-08-10T18:44:06.820Z,69732.03
2022-08-10T18:46:09.215Z,69722.84
2022-08-10T18:48:42.094Z,69712.72
2022-08-10T18:51:12.319Z,69721.72
2022-08-10T18:53:50.742Z,69729.31
2022-08-10T18:56:20.737Z,69726.63
2022-08-10T18:58:50.899Z,69723.59
2022-08-10T19:01:48.579Z,69718.63
2022-08-10T19:04:15.685Z,69699.47
2022-08-10T19:07:01.477Z,69723.94
2022-08-10T19:09:46.737Z,69732.16
2022-08-10T19:12:31.711Z,69722.63
2022-08-10T19:15:23.011Z,69704.72
2022-08-10T19:18:13.816Z,69697.28
2022-08-10T19:20:53.867Z,69709.31
2022-08-10T19:23:34.158Z,69729.72
2022-08-10T19:26:41.581Z,69724.00
2022-08-10T19:30:07.985Z,69712.91
2022-08-10T19:32:50.891Z,69720.75
2022-08-10T19:36:04.516Z,69703.59
2022-08-10T19:38:52.535Z,69701.47
2022-08-10T19:41:44.783Z,69691.00
2022-08-10T19:44:35.874Z,69708.72
2022-08-10T19:47:11.928Z,69710.28
2022-08-10T19:49:55.309Z,69725.31
2022-08-10T19:52:40.660Z,69741.91
2022-08-10T19:55:50.541Z,69738.06
2022-08-10T19:58:27.941Z,69746.66
2022-08-10T20:01:06.920Z,69746.50
2022-08-10T20:03:49.478Z,69752.94
2022-08-10T20:06:20.432Z,69742.81
2022-08-10T20:08:54.498Z,69717.22
2022-08-10T20:11:45.883Z,69735.78
2022-08-10T20:14:39.175Z,69708.56
2022-08-10T20:17:16.143Z,69699.00
2022-08-10T20:19:56.158Z,69682.56
2022-08-10T20:22:30.388Z,69684.56
2022-08-10T20:25:18.159Z,69664.69
2022-08-10T20:28:00.933Z,69660.28
2022-08-10T20:30:34.724Z,69640.25
2022-08-10T20:33:23.271Z,69633.97
2022-08-10T20:35:58.421Z,69625.94
2022-08-10T20:38:34.234Z,69617.38
2022-08-10T20:41:49.205Z,69612.66
2022-08-10T20:44:39.311Z,69601.38
2022-08-10T20:47:42.604Z,69616.09
2022-08-10T20:50:40.146Z,69591.50
2022-08-10T20:53:15.284Z,69575.91
2022-08-10T20:55:54.878Z,69550.50
2022-08-10T20:58:49.900Z,69540.06
2022-08-10T21:01:23.448Z,69542.34
2022-08-10T21:04:13.794Z,69549.03
2022-08-10T21:07:05.563Z,69549.19
2022-08-10T21:09:51.181Z,69539.31
2022-08-10T21:12:57.628Z,69532.63
